createdAt,value
2024-01-26T00:02:25.490Z,10.65
2024-01-26T00:04:52.591Z,11.00
2024-01-26T00:07:19.860Z,10.57
2024-01-26T00:09:46.943Z,10.32
2024-01-26T00:12:13.841Z,9.88
2024-01-26T00:14:40.795Z,10.02
2024-01-26T00:17:07.652Z,10.35
2024-01-26T00:19:34.510Z,9.50
2024-01-26T00:22:01.457Z,9.25
2024-01-26T00:24:28.474Z,9.23
2024-01-26T00:26:55.359Z,9.80
2024-01-26T00:29:22.518Z,8.77
2024-01-26T00:31:49.358Z,9.18
2024-01-26T00:34:16.495Z,7.88
2024-01-26T00:36:45.453Z,8.13
2024-01-26T00:39:12.631Z,9.13
2024-01-26T00:41:39.665Z,9.35
2024-01-26T00:44:06.662Z,8.38
2024-01-26T00:46:33.503Z,8.38
2024-01-26T00:49:00.545Z,8.20
2024-01-26T00:51:27.533Z,9.38
2024-01-26T00:53:54.460Z,9.40
2024-01-26T00:56:21.965Z,8.57
2024-01-26T00:58:48.978Z,8.60
2024-01-26T01:01:16.015Z,8.57
2024-01-26T01:03:43.273Z,8.35
2024-01-26T01:06:10.540Z,8.25
2024-01-26T01:08:37.875Z,8.63
2024-01-26T01:11:05.649Z,8.45
2024-01-26T01:13:32.667Z,9.13
2024-01-26T01:16:01.918Z,9.00
2024-01-26T01:18:29.028Z,9.18
2024-01-26T01:20:55.978Z,8.80
2024-01-26T01:23:23.019Z,8.65
2024-01-26T01:25:49.832Z,9.57
2024-01-26T01:28:17.275Z,8.85
2024-01-26T01:30:44.199Z,8.57
2024-01-26T01:33:11.144Z,8.20
2024-01-26T01:35:38.156Z,8.95
2024-01-26T01:38:05.100Z,8.20
2024-01-26T01:40:31.933Z,8.85
2024-01-26T01:42:59.163Z,8.80
2024-01-26T01:45:26.065Z,8.45
2024-01-26T01:47:53.047Z,7.85
2024-01-26T01:50:20.023Z,9.98
2024-01-26T01:52:49.961Z,8.75
2024-01-26T01:55:17.158Z,8.68
2024-01-26T01:57:46.044Z,8.98
2024-01-26T02:00:20.002Z,8.20
2024-01-26T02:02:48.951Z,7.95
2024-01-26T02:05:17.366Z,8.25
2024-01-26T02:07:52.027Z,8.25
2024-01-26T02:10:19.810Z,8.57
2024-01-26T02:12:46.756Z,9.43
2024-01-26T02:15:13.652Z,9.27
2024-01-26T02:17:42.817Z,9.27
2024-01-26T02:20:10.387Z,9.40
2024-01-26T02:22:38.531Z,9.18
2024-01-26T02:25:06.907Z,8.27
2024-01-26T02:27:34.887Z,8.20
2024-01-26T02:30:02.119Z,9.70
2024-01-26T02:32:29.347Z,9.07
2024-01-26T02:34:56.347Z,9.80
2024-01-26T02:37:23.283Z,8.85
2024-01-26T02:39:50.161Z,8.65
2024-01-26T02:42:17.070Z,8.82
2024-01-26T02:44:43.961Z,8.35
2024-01-26T02:47:10.975Z,9.38
2024-01-26T02:49:38.015Z,8.48
2024-01-26T02:52:05.089Z,7.93
2024-01-26T02:54:32.000Z,8.55
2024-01-26T02:57:00.017Z,9.02
2024-01-26T02:59:27.032Z,8.18
2024-01-26T03:01:53.978Z,8.10
2024-01-26T03:04:20.939Z,7.78
2024-01-26T03:06:48.625Z,8.38
2024-01-26T03:09:15.668Z,8.50
2024-01-26T03:11:44.150Z,8.00
2024-01-26T03:14:11.755Z,8.15
2024-01-26T03:16:42.200Z,8.23
2024-01-26T03:19:09.713Z,9.10
2024-01-26T03:21:45.916Z,8.07
2024-01-26T03:24:13.846Z,7.20
2024-01-26T03:26:40.895Z,9.70
2024-01-26T03:29:08.151Z,8.30
2024-01-26T03:31:35.410Z,7.82
2024-01-26T03:34:03.100Z,8.20
2024-01-26T03:36:30.395Z,9.15
2024-01-26T03:38:57.680Z,8.35
2024-01-26T03:41:25.158Z,8.68
2024-01-26T03:43:53.403Z,8.93
2024-01-26T03:46:21.741Z,8.73
2024-01-26T03:48:49.408Z,9.10
2024-01-26T03:51:16.930Z,9.05
2024-01-26T03:53:44.114Z,9.07
2024-01-26T03:56:11.091Z,9.55
2024-01-26T03:58:37.952Z,9.27
2024-01-26T04:01:05.103Z,10.27
2024-01-26T04:03:32.177Z,9.57
2024-01-26T04:05:59.245Z,8.63
2024-01-26T04:08:26.245Z,9.07
2024-01-26T04:10:53.363Z,9.13
2024-01-26T04:13:20.249Z,8.73
2024-01-26T04:15:48.158Z,8.70
2024-01-26T04:18:15.419Z,9.57
2024-01-26T04:20:42.656Z,9.43
2024-01-26T04:23:09.682Z,9.75
2024-01-26T04:25:36.654Z,10.10
2024-01-26T04:28:04.165Z,10.63
2024-01-26T04:30:31.730Z,10.27
2024-01-26T04:32:58.888Z,9.93
2024-01-26T04:35:26.015Z,10.32
2024-01-26T04:37:53.333Z,10.18
2024-01-26T04:40:20.544Z,10.30
2024-01-26T04:42:48.858Z,9.77
2024-01-26T04:45:16.096Z,11.43
2024-01-26T04:47:44.057Z,10.35
2024-01-26T04:50:11.846Z,10.25
2024-01-26T04:52:41.387Z,10.68
2024-01-26T04:55:10.102Z,10.77
2024-01-26T04:57:36.935Z,10.02
2024-01-26T05:00:05.159Z,9.55
2024-01-26T05:02:32.176Z,9.75
2024-01-26T05:04:59.186Z,10.13
2024-01-26T05:07:26.823Z,10.75
2024-01-26T05:09:53.732Z,11.10
2024-01-26T05:12:20.772Z,11.20
2024-01-26T05:14:47.789Z,9.88
2024-01-26T05:17:14.712Z,10.82
2024-01-26T05:19:41.798Z,11.40
2024-01-26T05:22:08.716Z,10.60
2024-01-26T05:24:35.913Z,10.38
2024-01-26T05:27:09.529Z,11.23
2024-01-26T05:29:37.391Z,11.20
2024-01-26T05:32:05.508Z,10.93
2024-01-26T05:34:32.629Z,12.13
2024-01-26T05:37:00.396Z,10.05
2024-01-26T05:39:30.086Z,11.50
2024-01-26T05:41:57.025Z,11.63
2024-01-26T05:44:23.933Z,11.23
2024-01-26T05:46:50.819Z,11.13
2024-01-26T05:49:17.883Z,10.95
2024-01-26T05:51:45.887Z,11.18
2024-01-26T05:54:15.736Z,10.57
2024-01-26T05:56:43.251Z,10.85
2024-01-26T05:59:10.179Z,10.93
2024-01-26T06:01:37.954Z,11.13
2024-01-26T06:04:06.553Z,11.35
2024-01-26T06:06:34.049Z,10.98
2024-01-26T06:09:01.070Z,11.13
2024-01-26T06:11:28.198Z,12.45
2024-01-26T06:13:55.414Z,12.55
2024-01-26T06:16:22.313Z,11.40
2024-01-26T06:18:49.475Z,11.02
2024-01-26T06:21:16.569Z,12.10
2024-01-26T06:23:43.617Z,11.13
2024-01-26T06:26:10.552Z,12.20
2024-01-26T06:28:37.553Z,12.07
2024-01-26T06:31:04.608Z,11.50
2024-01-26T06:33:31.608Z,11.38
2024-01-26T06:35:58.597Z,12.05
2024-01-26T06:38:25.524Z,11.30
2024-01-26T06:40:52.964Z,12.18
2024-01-26T06:43:21.204Z,12.20
2024-01-26T06:45:48.095Z,11.30
2024-01-26T06:48:15.264Z,11.90
2024-01-26T06:50:42.390Z,12.07
2024-01-26T06:53:10.519Z,10.80
2024-01-26T06:55:37.608Z,10.35
2024-01-26T06:58:04.551Z,10.50
2024-01-26T07:00:31.671Z,10.80
2024-01-26T07:02:58.670Z,10.35
2024-01-26T07:05:25.871Z,11.23
2024-01-26T07:07:52.833Z,10.20
2024-01-26T07:10:19.757Z,10.80
2024-01-26T07:12:46.746Z,10.95
2024-01-26T07:15:13.807Z,10.27
2024-01-26T07:17:40.944Z,9.88
2024-01-26T07:20:08.461Z,9.15
2024-01-26T07:22:35.380Z,8.88
2024-01-26T07:25:02.630Z,8.15
2024-01-26T07:27:29.685Z,9.20
2024-01-26T07:29:56.653Z,8.73
2024-01-26T07:32:23.540Z,8.10
2024-01-26T07:34:50.484Z,8.00
2024-01-26T07:37:17.387Z,7.40
2024-01-26T07:39:44.293Z,6.95
2024-01-26T07:42:11.343Z,7.40
2024-01-26T07:44:38.292Z,7.18
2024-01-26T07:47:05.331Z,6.03
2024-01-26T07:49:34.229Z,6.43
2024-01-26T07:52:01.643Z,5.80
2024-01-26T07:54:28.575Z,6.80
2024-01-26T07:56:56.007Z,6.65
2024-01-26T07:59:22.938Z,6.45
2024-01-26T08:01:50.027Z,6.30
2024-01-26T08:04:17.194Z,6.00
2024-01-26T08:06:44.271Z,5.82
2024-01-26T08:09:11.912Z,6.35
2024-01-26T08:11:39.773Z,4.68
2024-01-26T08:14:07.093Z,5.28
2024-01-26T08:16:34.647Z,4.43
2024-01-26T08:19:01.794Z,4.78
2024-01-26T08:21:29.077Z,3.78
2024-01-26T08:23:56.200Z,4.15
2024-01-26T08:26:23.567Z,3.17
2024-01-26T08:28:50.458Z,2.70
2024-01-26T08:31:17.372Z,2.53
2024-01-26T08:33:44.503Z,2.30
2024-01-26T08:36:11.711Z,2.30
2024-01-26T08:38:38.902Z,2.60
2024-01-26T08:41:09.214Z,2.22
2024-01-26T08:43:36.212Z,2.42
2024-01-26T08:46:03.250Z,2.33
2024-01-26T08:48:30.616Z,2.90
2024-01-26T08:50:57.635Z,1.90
2024-01-26T08:53:24.516Z,2.10
2024-01-26T08:55:51.412Z,1.90
2024-01-26T08:58:18.394Z,1.88
2024-01-26T09:00:47.094Z,2.17
2024-01-26T09:03:14.236Z,1.90
2024-01-26T09:05:41.399Z,1.90
2024-01-26T09:08:08.314Z,2.22
2024-01-26T09:10:35.269Z,2.00
2024-01-26T09:13:02.213Z,2.15
2024-01-26T09:15:29.197Z,2.17
2024-01-26T09:17:56.502Z,1.67
2024-01-26T09:20:23.678Z,2.10
2024-01-26T09:22:50.636Z,2.40
2024-01-26T09:25:17.521Z,1.98
2024-01-26T09:27:46.272Z,1.88
2024-01-26T09:30:13.661Z,2.10
2024-01-26T09:32:40.908Z,1.92
2024-01-26T09:35:11.009Z,1.98
2024-01-26T09:37:38.118Z,1.92
2024-01-26T09:40:05.983Z,1.60
2024-01-26T09:42:33.191Z,2.03
2024-01-26T09:45:02.525Z,1.90
2024-01-26T09:47:31.110Z,1.73
2024-01-26T09:50:03.332Z,1.65
2024-01-26T09:52:31.005Z,1.70
2024-01-26T09:54:59.850Z,1.67
2024-01-26T09:57:27.828Z,1.50
2024-01-26T09:59:55.051Z,1.45
2024-01-26T10:02:26.475Z,1.65
2024-01-26T10:04:54.045Z,1.42
2024-01-26T10:07:22.457Z,1.60
2024-01-26T10:09:51.189Z,1.52
2024-01-26T10:12:19.594Z,1.50
2024-01-26T10:14:46.683Z,1.58
2024-01-26T10:17:20.321Z,1.70
2024-01-26T10:19:47.348Z,1.70
2024-01-26T10:22:15.389Z,1.85
2024-01-26T10:24:43.167Z,1.80
2024-01-26T10:27:11.030Z,1.77
2024-01-26T10:29:38.927Z,1.63
2024-01-26T10:32:11.238Z,1.73
2024-01-26T10:34:40.633Z,2.17
2024-01-26T10:37:11.193Z,2.00
2024-01-26T10:39:39.959Z,1.60
2024-01-26T10:42:07.864Z,1.70
2024-01-26T10:44:39.065Z,1.80
2024-01-26T10:47:08.231Z,2.08
2024-01-26T10:49:37.635Z,2.45
2024-01-26T10:52:07.121Z,1.90
2024-01-26T10:54:34.790Z,1.80
2024-01-26T10:57:02.004Z,1.83
2024-01-26T10:59:29.341Z,1.88
2024-01-26T11:01:56.801Z,1.73
2024-01-26T11:04:24.301Z,1.70
2024-01-26T11:06:51.851Z,1.58
2024-01-26T11:09:20.552Z,1.90
2024-01-26T11:11:51.960Z,1.67
2024-01-26T11:14:27.590Z,1.90
2024-01-26T11:16:54.484Z,1.80
2024-01-26T11:19:24.890Z,1.75
2024-01-26T11:21:51.937Z,2.10
2024-01-26T11:24:20.431Z,1.67
2024-01-26T11:26:58.283Z,1.75
2024-01-26T11:29:35.052Z,1.88
2024-01-26T11:32:16.043Z,1.90
2024-01-26T11:34:43.237Z,2.05
2024-01-26T11:37:12.183Z,2.13
2024-01-26T11:39:40.122Z,1.80
2024-01-26T11:42:12.665Z,1.77
2024-01-26T11:44:43.381Z,1.95
2024-01-26T11:47:11.142Z,2.05
2024-01-26T11:49:40.681Z,2.40
2024-01-26T11:52:08.486Z,1.80
2024-01-26T11:54:36.337Z,1.90
2024-01-26T11:57:04.135Z,1.70
2024-01-26T11:59:31.758Z,1.80
2024-01-26T12:01:58.835Z,2.10
2024-01-26T12:04:25.845Z,2.20
2024-01-26T12:06:55.830Z,2.15
2024-01-26T12:09:22.936Z,1.92
2024-01-26T12:11:50.656Z,1.80
2024-01-26T12:14:17.637Z,2.50
2024-01-26T12:16:44.527Z,1.88
2024-01-26T12:19:11.626Z,2.25
2024-01-26T12:21:39.109Z,1.83
2024-01-26T12:24:15.327Z,1.90
2024-01-26T12:26:42.999Z,1.83
2024-01-26T12:29:10.045Z,2.13
2024-01-26T12:31:38.069Z,2.35
2024-01-26T12:34:12.919Z,2.15
2024-01-26T12:36:40.204Z,2.53
2024-01-26T12:39:07.216Z,2.80
2024-01-26T12:41:34.666Z,3.20
2024-01-26T12:44:02.224Z,2.35
2024-01-26T12:46:29.079Z,2.22
2024-01-26T12:48:56.273Z,2.15
2024-01-26T12:51:23.304Z,2.08
2024-01-26T12:53:50.406Z,2.45
2024-01-26T12:56:17.360Z,2.20
2024-01-26T12:58:44.329Z,1.80
2024-01-26T13:01:12.190Z,1.90
2024-01-26T13:03:39.223Z,2.00
2024-01-26T13:06:06.447Z,1.98
2024-01-26T13:08:33.390Z,1.75
2024-01-26T13:11:00.299Z,2.05
2024-01-26T13:13:28.359Z,1.88
2024-01-26T13:15:55.319Z,1.77
2024-01-26T13:18:27.311Z,1.70
2024-01-26T13:20:56.419Z,1.92
2024-01-26T13:23:23.779Z,1.77
2024-01-26T13:25:53.411Z,1.83
2024-01-26T13:28:20.496Z,1.60
2024-01-26T13:30:48.072Z,1.98
2024-01-26T13:33:16.092Z,1.55
2024-01-26T13:35:43.203Z,1.80
2024-01-26T13:38:10.130Z,1.58
2024-01-26T13:40:36.957Z,1.60
2024-01-26T13:43:04.668Z,1.60
2024-01-26T13:45:31.896Z,1.50
2024-01-26T13:48:04.176Z,1.40
2024-01-26T13:50:39.530Z,1.45
2024-01-26T13:53:06.672Z,1.20
2024-01-26T13:55:34.667Z,1.20
2024-01-26T13:58:01.612Z,0.98
2024-01-26T14:00:29.104Z,1.10
2024-01-26T14:02:56.481Z,1.50
2024-01-26T14:05:23.537Z,1.50
2024-01-26T14:07:50.613Z,1.25
2024-01-26T14:10:18.400Z,1.17
2024-01-26T14:12:45.378Z,0.90
2024-01-26T14:15:14.656Z,1.13
2024-01-26T14:17:43.624Z,1.27
2024-01-26T14:20:11.148Z,1.10
2024-01-26T14:22:38.932Z,0.90
2024-01-26T14:25:06.396Z,1.10
2024-01-26T14:27:33.291Z,1.00
2024-01-26T14:30:00.263Z,1.30
2024-01-26T14:32:27.488Z,1.60
2024-01-26T14:34:54.687Z,1.00
2024-01-26T14:37:21.721Z,0.82
2024-01-26T14:39:48.634Z,1.20
2024-01-26T14:42:16.100Z,0.90
2024-01-26T14:44:44.756Z,1.10
2024-01-26T14:47:13.398Z,1.20
2024-01-26T14:49:42.224Z,1.00
2024-01-26T14:52:11.239Z,1.27
2024-01-26T14:54:38.575Z,1.13
2024-01-26T14:57:05.682Z,1.20
2024-01-26T14:59:32.599Z,1.15
2024-01-26T15:01:59.522Z,1.10
2024-01-26T15:04:26.434Z,1.40
2024-01-26T15:06:54.066Z,1.15
2024-01-26T15:09:21.396Z,1.10
2024-01-26T15:11:48.445Z,1.13
2024-01-26T15:14:15.374Z,1.30
2024-01-26T15:16:42.385Z,1.30
2024-01-26T15:19:09.522Z,1.17
2024-01-26T15:21:42.185Z,1.45
2024-01-26T15:24:09.404Z,1.30
2024-01-26T15:26:41.757Z,1.45
2024-01-26T15:29:08.984Z,1.40
2024-01-26T15:31:35.822Z,1.25
2024-01-26T15:34:02.973Z,1.27
2024-01-26T15:36:31.014Z,1.30
2024-01-26T15:38:58.091Z,1.17
2024-01-26T15:41:25.756Z,1.30
2024-01-26T15:43:53.166Z,1.20
2024-01-26T15:46:20.011Z,1.35
2024-01-26T15:48:47.338Z,1.50
2024-01-26T15:51:14.756Z,1.40
2024-01-26T15:53:43.026Z,1.60
2024-01-26T15:56:11.480Z,1.23
2024-01-26T15:58:38.730Z,1.20
2024-01-26T16:01:05.890Z,2.40
2024-01-26T16:03:32.911Z,1.20
2024-01-26T16:05:59.977Z,1.20
2024-01-26T16:08:26.857Z,4.13
2024-01-26T16:10:54.154Z,1.70
2024-01-26T16:13:21.008Z,1.40
2024-01-26T16:15:50.664Z,1.38
2024-01-26T16:18:17.863Z,1.95
2024-01-26T16:20:45.077Z,1.77
2024-01-26T16:23:11.958Z,1.33
2024-01-26T16:25:40.595Z,1.35
2024-01-26T16:28:07.762Z,1.45
2024-01-26T16:30:34.706Z,1.50
2024-01-26T16:33:01.732Z,1.80
2024-01-26T16:35:30.070Z,1.50
2024-01-26T16:37:57.144Z,1.60
2024-01-26T16:40:27.669Z,1.58
2024-01-26T16:42:54.733Z,2.38
2024-01-26T16:45:21.934Z,2.05
2024-01-26T16:47:49.286Z,1.90
2024-01-26T16:50:16.696Z,1.85
2024-01-26T16:52:43.685Z,2.65
2024-01-26T16:55:11.280Z,2.63
2024-01-26T16:57:38.296Z,2.10
2024-01-26T17:00:05.950Z,2.28
2024-01-26T17:02:33.062Z,2.28
2024-01-26T17:05:01.219Z,2.30
2024-01-26T17:07:28.277Z,1.90
2024-01-26T17:09:55.200Z,2.30
2024-01-26T17:12:24.021Z,8.55
2024-01-26T17:14:51.371Z,3.13
2024-01-26T17:17:21.141Z,3.25
2024-01-26T17:19:52.311Z,3.38
2024-01-26T17:22:20.091Z,2.90
2024-01-26T17:24:47.078Z,2.00
2024-01-26T17:27:14.016Z,2.65
2024-01-26T17:29:40.959Z,2.60
2024-01-26T17:32:11.496Z,1.95
2024-01-26T17:34:39.623Z,2.28
2024-01-26T17:37:06.856Z,2.45
2024-01-26T17:39:34.762Z,2.30
2024-01-26T17:42:01.900Z,2.15
2024-01-26T17:44:28.855Z,1.70
2024-01-26T17:46:55.724Z,1.70
2024-01-26T17:49:22.738Z,1.80
2024-01-26T17:51:54.376Z,2.30
2024-01-26T17:54:23.461Z,2.38
2024-01-26T17:56:51.501Z,2.67
2024-01-26T17:59:18.603Z,2.22
2024-01-26T18:01:45.545Z,2.10
2024-01-26T18:04:13.269Z,2.13
2024-01-26T18:06:40.426Z,2.25
2024-01-26T18:09:07.403Z,2.20
2024-01-26T18:11:34.604Z,2.30
2024-01-26T18:14:02.004Z,2.08
2024-01-26T18:16:28.890Z,2.25
2024-01-26T18:18:56.132Z,2.53
2024-01-26T18:21:23.204Z,1.73
2024-01-26T18:23:50.505Z,2.05
2024-01-26T18:26:18.469Z,2.30
2024-01-26T18:28:45.917Z,2.10
2024-01-26T18:31:12.882Z,2.00
2024-01-26T18:33:40.096Z,2.15
2024-01-26T18:36:07.991Z,2.58
2024-01-26T18:38:35.174Z,2.30
2024-01-26T18:41:02.474Z,2.38
2024-01-26T18:43:29.573Z,2.40
2024-01-26T18:45:57.378Z,3.00
2024-01-26T18:48:24.468Z,2.53
2024-01-26T18:50:51.601Z,2.38
2024-01-26T18:53:18.569Z,2.20
2024-01-26T18:55:48.390Z,2.45
2024-01-26T18:58:15.565Z,2.17
2024-01-26T19:00:43.156Z,3.35
2024-01-26T19:03:10.431Z,3.85
2024-01-26T19:05:37.497Z,3.35
2024-01-26T19:08:04.871Z,2.60
2024-01-26T19:10:32.150Z,3.05
2024-01-26T19:13:05.898Z,3.47
2024-01-26T19:15:33.196Z,3.38
2024-01-26T19:18:00.725Z,3.08
2024-01-26T19:20:29.042Z,3.17
2024-01-26T19:22:55.987Z,3.22
2024-01-26T19:25:23.276Z,3.88
2024-01-26T19:27:50.263Z,2.58
2024-01-26T19:30:17.849Z,2.70
2024-01-26T19:32:46.506Z,2.72
2024-01-26T19:35:13.513Z,2.60
2024-01-26T19:37:40.453Z,3.20
2024-01-26T19:40:09.068Z,3.05
2024-01-26T19:42:35.952Z,3.50
2024-01-26T19:45:02.938Z,3.60
2024-01-26T19:47:29.929Z,7.35
2024-01-26T19:49:56.927Z,4.22
2024-01-26T19:52:24.052Z,3.45
2024-01-26T19:54:56.286Z,3.40
2024-01-26T19:57:24.962Z,3.38
2024-01-26T19:59:53.752Z,3.67
2024-01-26T20:02:20.688Z,3.58
2024-01-26T20:04:47.602Z,3.40
2024-01-26T20:07:16.877Z,3.60
2024-01-26T20:09:46.783Z,3.20
2024-01-26T20:12:14.249Z,4.43
2024-01-26T20:14:41.160Z,4.15
2024-01-26T20:17:10.548Z,2.83
2024-01-26T20:19:39.530Z,3.53
2024-01-26T20:22:06.460Z,3.13
2024-01-26T20:24:33.509Z,3.47
2024-01-26T20:27:00.454Z,3.55
2024-01-26T20:29:27.359Z,3.63
2024-01-26T20:31:54.616Z,3.30
2024-01-26T20:34:21.701Z,3.53
2024-01-26T20:36:49.077Z,3.28
2024-01-26T20:39:16.124Z,2.85
2024-01-26T20:41:43.204Z,3.75
2024-01-26T20:44:10.282Z,3.50
2024-01-26T20:46:37.167Z,3.63
2024-01-26T20:49:04.346Z,3.40
2024-01-26T20:51:31.458Z,3.40
2024-01-26T20:53:58.457Z,4.07
2024-01-26T20:56:25.412Z,3.75
2024-01-26T20:58:53.574Z,4.07
2024-01-26T21:01:20.577Z,3.88
2024-01-26T21:03:47.720Z,3.90
2024-01-26T21:06:14.748Z,3.40
2024-01-26T21:08:41.946Z,4.18
2024-01-26T21:11:09.036Z,3.20
2024-01-26T21:13:36.148Z,3.40
2024-01-26T21:16:03.099Z,3.47
2024-01-26T21:18:30.223Z,3.33
2024-01-26T21:20:58.632Z,4.05
2024-01-26T21:23:25.793Z,3.72
2024-01-26T21:25:53.395Z,3.42
2024-01-26T21:28:20.391Z,3.67
2024-01-26T21:30:49.991Z,4.03
2024-01-26T21:33:17.193Z,3.42
2024-01-26T21:35:44.355Z,3.42
2024-01-26T21:38:11.509Z,3.55
2024-01-26T21:40:38.401Z,3.63
2024-01-26T21:43:06.572Z,3.08
2024-01-26T21:45:34.813Z,3.85
2024-01-26T21:48:01.971Z,3.47
2024-01-26T21:50:29.162Z,3.35
2024-01-26T21:52:56.166Z,3.70
2024-01-26T21:55:24.054Z,3.63
2024-01-26T21:57:50.961Z,3.50
2024-01-26T22:00:18.173Z,3.40
2024-01-26T22:02:45.219Z,3.22
2024-01-26T22:05:13.091Z,3.67
2024-01-26T22:07:40.500Z,3.80
2024-01-26T22:10:08.236Z,3.10
2024-01-26T22:12:35.336Z,3.10
2024-01-26T22:15:02.897Z,2.92
2024-01-26T22:17:30.075Z,3.35
2024-01-26T22:19:56.975Z,3.20
2024-01-26T22:22:23.893Z,3.55
2024-01-26T22:24:50.771Z,3.10
2024-01-26T22:27:17.667Z,2.97
2024-01-26T22:29:44.641Z,3.38
2024-01-26T22:32:11.750Z,3.53
2024-01-26T22:34:38.678Z,3.38
2024-01-26T22:37:05.557Z,3.28
2024-01-26T22:39:32.521Z,3.10
2024-01-26T22:41:59.410Z,3.80
2024-01-26T22:44:27.272Z,3.20
2024-01-26T22:46:54.281Z,3.70
2024-01-26T22:49:22.406Z,4.25
2024-01-26T22:51:49.563Z,3.67
2024-01-26T22:54:16.528Z,3.80
2024-01-26T22:56:43.609Z,3.10
2024-01-26T22:59:10.522Z,3.20
2024-01-26T23:01:37.396Z,3.22
2024-01-26T23:04:06.559Z,3.42
2024-01-26T23:06:33.909Z,3.30
2024-01-26T23:09:00.813Z,3.65
2024-01-26T23:11:29.946Z,3.72
2024-01-26T23:13:56.813Z,3.50
2024-01-26T23:16:23.761Z,3.35
2024-01-26T23:18:50.958Z,3.15
2024-01-26T23:21:18.051Z,3.97
2024-01-26T23:23:44.955Z,3.22
2024-01-26T23:26:11.865Z,3.13
2024-01-26T23:28:39.730Z,3.85
2024-01-26T23:31:06.712Z,3.33
2024-01-26T23:33:33.730Z,3.40
2024-01-26T23:36:00.797Z,4.60
2024-01-26T23:38:27.823Z,3.05
2024-01-26T23:40:54.708Z,3.72
2024-01-26T23:43:23.547Z,3.90
2024-01-26T23:45:50.563Z,3.13
2024-01-26T23:48:17.771Z,3.20
2024-01-26T23:50:44.995Z,3.13
2024-01-26T23:53:11.936Z,3.47
2024-01-26T23:55:38.764Z,3.33
2024-01-26T23:58:06.535Z,3.22
